sensor_id;sensor_type;location;lat;lon;timestamp;P1;durP1;ratioP1;P2;durP2;ratioP2
12784;SDS011;6456;42.680;23.260;2023-03-14T00:00:43;21.90;;;13.77;;
12784;SDS011;6456;42.680;23.260;2023-03-14T00:03:19;23.40;;;14.60;;
12784;SDS011;6456;42.680;23.260;2023-03-14T00:06:03;24.50;;;14.43;;
12784;SDS011;6456;42.680;23.260;2023-03-14T00:08:35;23.10;;;14.90;;
12784;SDS011;6456;42.680;23.260;2023-03-14T00:11:06;20.83;;;14.00;;
12784;SDS011;6456;42.680;23.260;2023-03-14T00:13:39;23.23;;;14.50;;
12784;SDS011;6456;42.680;23.260;2023-03-14T00:16:10;23.83;;;15.10;;
12784;SDS011;6456;42.680;23.260;2023-03-14T00:18:41;24.77;;;14.80;;
12784;SDS011;6456;42.680;23.260;2023-03-14T00:21:15;21.03;;;14.47;;
12784;SDS011;6456;42.680;23.260;2023-03-14T00:23:43;24.57;;;16.33;;
12784;SDS011;6456;42.680;23.260;2023-03-14T00:26:10;19.30;;;14.17;;
12784;SDS011;6456;42.680;23.260;2023-03-14T00:28:39;22.83;;;14.67;;
12784;SDS011;6456;42.680;23.260;2023-03-14T00:31:07;23.03;;;15.17;;
12784;SDS011;6456;42.680;23.260;2023-03-14T00:33:36;17.77;;;12.33;;
12784;SDS011;6456;42.680;23.260;2023-03-14T00:36:05;22.43;;;14.10;;
12784;SDS011;6456;42.680;23.260;2023-03-14T00:38:35;18.93;;;12.57;;
12784;SDS011;6456;42.680;23.260;2023-03-14T00:41:03;20.40;;;12.93;;
12784;SDS011;6456;42.680;23.260;2023-03-14T00:43:31;18.13;;;12.53;;
12784;SDS011;6456;42.680;23.260;2023-03-14T00:46:07;17.53;;;11.67;;
12784;SDS011;6456;42.680;23.260;2023-03-14T00:48:37;21.03;;;12.70;;
12784;SDS011;6456;42.680;23.260;2023-03-14T00:51:10;20.70;;;11.73;;
12784;SDS011;6456;42.680;23.260;2023-03-14T00:53:39;17.10;;;11.90;;
12784;SDS011;6456;42.680;23.260;2023-03-14T00:56:09;16.83;;;11.73;;
12784;SDS011;6456;42.680;23.260;2023-03-14T00:58:43;18.30;;;11.57;;
12784;SDS011;6456;42.680;23.260;2023-03-14T01:01:17;16.37;;;11.80;;
12784;SDS011;6456;42.680;23.260;2023-03-14T01:03:45;15.77;;;10.93;;
12784;SDS011;6456;42.680;23.260;2023-03-14T01:06:27;15.70;;;9.53;;
12784;SDS011;6456;42.680;23.260;2023-03-14T01:09:01;17.47;;;10.83;;
12784;SDS011;6456;42.680;23.260;2023-03-14T01:11:33;12.97;;;9.30;;
12784;SDS011;6456;42.680;23.260;2023-03-14T01:14:12;13.60;;;9.30;;
12784;SDS011;6456;42.680;23.260;2023-03-14T01:16:54;13.50;;;9.73;;
12784;SDS011;6456;42.680;23.260;2023-03-14T01:19:25;12.87;;;9.23;;
12784;SDS011;6456;42.680;23.260;2023-03-14T01:21:54;16.23;;;9.37;;
12784;SDS011;6456;42.680;23.260;2023-03-14T01:24:22;12.27;;;9.10;;
12784;SDS011;6456;42.680;23.260;2023-03-14T01:26:53;11.20;;;8.60;;
12784;SDS011;6456;42.680;23.260;2023-03-14T01:29:35;10.47;;;7.97;;
12784;SDS011;6456;42.680;23.260;2023-03-14T01:32:12;10.00;;;7.30;;
12784;SDS011;6456;42.680;23.260;2023-03-14T01:34:39;13.77;;;8.33;;
12784;SDS011;6456;42.680;23.260;2023-03-14T01:37:08;11.53;;;8.17;;
12784;SDS011;6456;42.680;23.260;2023-03-14T01:39:38;13.97;;;9.03;;
12784;SDS011;6456;42.680;23.260;2023-03-14T01:42:05;15.00;;;9.43;;
12784;SDS011;6456;42.680;23.260;2023-03-14T01:44:49;17.43;;;10.30;;
12784;SDS011;6456;42.680;23.260;2023-03-14T01:47:21;12.80;;;10.07;;
12784;SDS011;6456;42.680;23.260;2023-03-14T01:49:51;16.27;;;9.30;;
12784;SDS011;6456;42.680;23.260;2023-03-14T01:52:24;9.90;;;7.80;;
12784;SDS011;6456;42.680;23.260;2023-03-14T01:55:02;11.20;;;7.83;;
12784;SDS011;6456;42.680;23.260;2023-03-14T01:57:35;8.77;;;7.43;;
12784;SDS011;6456;42.680;23.260;2023-03-14T02:00:05;12.53;;;8.30;;
12784;SDS011;6456;42.680;23.260;2023-03-14T02:02:40;11.90;;;8.57;;
12784;SDS011;6456;42.680;23.260;2023-03-14T02:05:08;15.67;;;11.10;;
12784;SDS011;6456;42.680;23.260;2023-03-14T02:07:39;15.43;;;11.53;;
12784;SDS011;6456;42.680;23.260;2023-03-14T02:10:13;13.80;;;10.70;;
12784;SDS011;6456;42.680;23.260;2023-03-14T02:12:46;13.00;;;10.50;;
12784;SDS011;6456;42.680;23.260;2023-03-14T02:15:14;21.77;;;10.10;;
12784;SDS011;6456;42.680;23.260;2023-03-14T02:17:41;13.40;;;9.40;;
12784;SDS011;6456;42.680;23.260;2023-03-14T02:20:15;16.03;;;9.43;;
12784;SDS011;6456;42.680;23.260;2023-03-14T02:23:01;13.17;;;9.47;;
12784;SDS011;6456;42.680;23.260;2023-03-14T02:25:38;11.70;;;8.93;;
12784;SDS011;6456;42.680;23.260;2023-03-14T02:28:17;12.53;;;9.67;;
12784;SDS011;6456;42.680;23.260;2023-03-14T02:30:46;14.73;;;9.50;;
12784;SDS011;6456;42.680;23.260;2023-03-14T02:33:16;13.73;;;9.90;;
12784;SDS011;6456;42.680;23.260;2023-03-14T02:35:50;13.43;;;9.67;;
12784;SDS011;6456;42.680;23.260;2023-03-14T02:38:22;13.23;;;9.73;;
12784;SDS011;6456;42.680;23.260;2023-03-14T02:40:55;13.13;;;9.20;;
12784;SDS011;6456;42.680;23.260;2023-03-14T02:43:27;11.20;;;8.23;;
12784;SDS011;6456;42.680;23.260;2023-03-14T02:45:54;12.77;;;9.40;;
12784;SDS011;6456;42.680;23.260;2023-03-14T02:48:23;11.70;;;8.37;;
12784;SDS011;6456;42.680;23.260;2023-03-14T02:50:53;12.60;;;9.20;;
12784;SDS011;6456;42.680;23.260;2023-03-14T02:53:26;15.33;;;11.30;;
12784;SDS011;6456;42.680;23.260;2023-03-14T02:55:56;16.90;;;10.90;;
12784;SDS011;6456;42.680;23.260;2023-03-14T02:58:27;24.57;;;14.03;;
12784;SDS011;6456;42.680;23.260;2023-03-14T03:00:58;22.40;;;13.90;;
12784;SDS011;6456;42.680;23.260;2023-03-14T03:03:26;27.40;;;14.17;;
12784;SDS011;6456;42.680;23.260;2023-03-14T03:05:54;21.00;;;12.60;;
12784;SDS011;6456;42.680;23.260;2023-03-14T03:08:25;21.23;;;13.70;;
12784;SDS011;6456;42.680;23.260;2023-03-14T03:10:53;17.70;;;11.03;;
12784;SDS011;6456;42.680;23.260;2023-03-14T03:13:21;19.13;;;11.17;;
12784;SDS011;6456;42.680;23.260;2023-03-14T03:15:49;18.70;;;11.00;;
12784;SDS011;6456;42.680;23.260;2023-03-14T03:18:16;19.07;;;11.83;;
12784;SDS011;6456;42.680;23.260;2023-03-14T03:20:43;19.87;;;13.03;;
12784;SDS011;6456;42.680;23.260;2023-03-14T03:23:11;13.87;;;10.57;;
12784;SDS011;6456;42.680;23.260;2023-03-14T03:25:38;15.80;;;11.07;;
12784;SDS011;6456;42.680;23.260;2023-03-14T03:28:05;14.90;;;10.33;;
12784;SDS011;6456;42.680;23.260;2023-03-14T03:30:48;13.70;;;10.47;;
12784;SDS011;6456;42.680;23.260;2023-03-14T03:33:35;13.53;;;9.77;;
12784;SDS011;6456;42.680;23.260;2023-03-14T03:36:02;15.43;;;9.23;;
12784;SDS011;6456;42.680;23.260;2023-03-14T03:38:30;16.50;;;10.33;;
12784;SDS011;6456;42.680;23.260;2023-03-14T03:41:01;15.67;;;10.23;;
12784;SDS011;6456;42.680;23.260;2023-03-14T03:43:29;14.37;;;9.90;;
12784;SDS011;6456;42.680;23.260;2023-03-14T03:45:59;17.33;;;9.77;;
12784;SDS011;6456;42.680;23.260;2023-03-14T03:48:32;13.87;;;9.20;;
12784;SDS011;6456;42.680;23.260;2023-03-14T03:51:00;14.23;;;10.03;;
12784;SDS011;6456;42.680;23.260;2023-03-14T03:53:27;16.33;;;9.13;;
12784;SDS011;6456;42.680;23.260;2023-03-14T03:55:54;16.50;;;10.33;;
12784;SDS011;6456;42.680;23.260;2023-03-14T03:58:27;10.57;;;8.93;;
12784;SDS011;6456;42.680;23.260;2023-03-14T04:00:58;12.40;;;9.10;;
12784;SDS011;6456;42.680;23.260;2023-03-14T04:03:25;13.70;;;8.60;;
12784;SDS011;6456;42.680;23.260;2023-03-14T04:05:58;17.40;;;9.33;;
12784;SDS011;6456;42.680;23.260;2023-03-14T04:08:27;12.73;;;9.07;;
12784;SDS011;6456;42.680;23.260;2023-03-14T04:10:55;11.97;;;8.77;;
12784;SDS011;6456;42.680;23.260;2023-03-14T04:13:23;12.03;;;9.33;;
12784;SDS011;6456;42.680;23.260;2023-03-14T04:15:50;11.00;;;8.53;;
12784;SDS011;6456;42.680;23.260;2023-03-14T04:18:29;12.30;;;8.77;;
12784;SDS011;6456;42.680;23.260;2023-03-14T04:20:57;10.47;;;7.80;;
12784;SDS011;6456;42.680;23.260;2023-03-14T04:23:31;14.37;;;10.50;;
12784;SDS011;6456;42.680;23.260;2023-03-14T04:26:02;12.07;;;9.67;;
12784;SDS011;6456;42.680;23.260;2023-03-14T04:28:31;13.87;;;9.20;;
12784;SDS011;6456;42.680;23.260;2023-03-14T04:31:06;13.70;;;10.00;;
12784;SDS011;6456;42.680;23.260;2023-03-14T04:33:35;20.80;;;11.87;;
12784;SDS011;6456;42.680;23.260;2023-03-14T04:36:05;15.73;;;10.53;;
12784;SDS011;6456;42.680;23.260;2023-03-14T04:38:33;14.57;;;9.40;;
12784;SDS011;6456;42.680;23.260;2023-03-14T04:41:00;20.43;;;11.60;;
12784;SDS011;6456;42.680;23.260;2023-03-14T04:43:30;15.63;;;11.20;;
12784;SDS011;6456;42.680;23.260;2023-03-14T04:45:57;18.80;;;10.97;;
12784;SDS011;6456;42.680;23.260;2023-03-14T04:48:29;17.23;;;11.57;;
12784;SDS011;6456;42.680;23.260;2023-03-14T04:51:01;14.27;;;10.63;;
12784;SDS011;6456;42.680;23.260;2023-03-14T04:53:31;21.13;;;11.53;;
12784;SDS011;6456;42.680;23.260;2023-03-14T04:55:59;18.40;;;10.50;;
12784;SDS011;6456;42.680;23.260;2023-03-14T04:58:31;22.73;;;10.40;;
12784;SDS011;6456;42.680;23.260;2023-03-14T05:01:06;18.90;;;11.40;;
12784;SDS011;6456;42.680;23.260;2023-03-14T05:03:33;23.83;;;12.10;;
12784;SDS011;6456;42.680;23.260;2023-03-14T05:06:14;17.33;;;11.83;;
12784;SDS011;6456;42.680;23.260;2023-03-14T05:08:50;19.53;;;11.33;;
12784;SDS011;6456;42.680;23.260;2023-03-14T05:11:41;22.30;;;11.47;;
12784;SDS011;6456;42.680;23.260;2023-03-14T05:14:37;20.80;;;12.40;;
12784;SDS011;6456;42.680;23.260;2023-03-14T05:17:52;22.53;;;12.57;;
12784;SDS011;6456;42.680;23.260;2023-03-14T05:20:32;33.83;;;13.33;;
12784;SDS011;6456;42.680;23.260;2023-03-14T05:23:11;26.43;;;15.53;;
12784;SDS011;6456;42.680;23.260;2023-03-14T05:25:44;31.77;;;15.97;;
12784;SDS011;6456;42.680;23.260;2023-03-14T05:28:11;26.57;;;14.03;;
12784;SDS011;6456;42.680;23.260;2023-03-14T05:30:38;35.20;;;18.40;;
12784;SDS011;6456;42.680;23.260;2023-03-14T05:33:05;26.23;;;16.57;;
12784;SDS011;6456;42.680;23.260;2023-03-14T05:35:32;32.60;;;17.83;;
12784;SDS011;6456;42.680;23.260;2023-03-14T05:37:59;27.73;;;15.47;;
12784;SDS011;6456;42.680;23.260;2023-03-14T05:40:27;36.57;;;15.37;;
12784;SDS011;6456;42.680;23.260;2023-03-14T05:42:54;21.83;;;14.23;;
12784;SDS011;6456;42.680;23.260;2023-03-14T05:45:21;26.43;;;14.40;;
12784;SDS011;6456;42.680;23.260;2023-03-14T05:47:48;21.60;;;14.73;;
12784;SDS011;6456;42.680;23.260;2023-03-14T05:50:15;33.93;;;16.80;;
12784;SDS011;6456;42.680;23.260;2023-03-14T05:52:41;22.33;;;13.60;;
12784;SDS011;6456;42.680;23.260;2023-03-14T05:55:08;20.60;;;12.13;;
12784;SDS011;6456;42.680;23.260;2023-03-14T05:57:37;30.43;;;15.57;;
12784;SDS011;6456;42.680;23.260;2023-03-14T06:00:04;20.13;;;12.37;;
12784;SDS011;6456;42.680;23.260;2023-03-14T06:02:32;14.07;;;10.37;;
12784;SDS011;6456;42.680;23.260;2023-03-14T06:04:59;16.67;;;11.20;;
12784;SDS011;6456;42.680;23.260;2023-03-14T06:07:25;20.33;;;10.70;;
12784;SDS011;6456;42.680;23.260;2023-03-14T06:09:52;13.93;;;10.27;;
12784;SDS011;6456;42.680;23.260;2023-03-14T06:12:19;18.33;;;10.87;;
12784;SDS011;6456;42.680;23.260;2023-03-14T06:14:47;13.80;;;9.70;;
12784;SDS011;6456;42.680;23.260;2023-03-14T06:17:14;15.47;;;9.30;;
12784;SDS011;6456;42.680;23.260;2023-03-14T06:19:41;14.87;;;8.27;;
12784;SDS011;6456;42.680;23.260;2023-03-14T06:22:08;13.70;;;8.33;;
12784;SDS011;6456;42.680;23.260;2023-03-14T06:24:34;11.07;;;7.63;;
12784;SDS011;6456;42.680;23.260;2023-03-14T06:27:01;9.90;;;7.57;;
12784;SDS011;6456;42.680;23.260;2023-03-14T06:29:28;13.03;;;8.47;;
12784;SDS011;6456;42.680;23.260;2023-03-14T06:31:57;12.13;;;7.40;;
12784;SDS011;6456;42.680;23.260;2023-03-14T06:34:24;10.77;;;8.37;;
12784;SDS011;6456;42.680;23.260;2023-03-14T06:36:51;10.47;;;8.03;;
12784;SDS011;6456;42.680;23.260;2023-03-14T06:39:18;9.73;;;7.67;;
12784;SDS011;6456;42.680;23.260;2023-03-14T06:41:45;10.03;;;7.77;;
12784;SDS011;6456;42.680;23.260;2023-03-14T06:44:11;14.07;;;9.03;;
12784;SDS011;6456;42.680;23.260;2023-03-14T06:46:38;12.90;;;8.53;;
12784;SDS011;6456;42.680;23.260;2023-03-14T06:49:06;12.77;;;9.67;;
12784;SDS011;6456;42.680;23.260;2023-03-14T06:51:33;14.20;;;9.13;;
12784;SDS011;6456;42.680;23.260;2023-03-14T06:54:00;17.13;;;10.87;;
12784;SDS011;6456;42.680;23.260;2023-03-14T06:56:27;16.40;;;10.57;;
12784;SDS011;6456;42.680;23.260;2023-03-14T06:58:54;16.10;;;10.67;;
12784;SDS011;6456;42.680;23.260;2023-03-14T07:01:21;17.40;;;12.80;;
12784;SDS011;6456;42.680;23.260;2023-03-14T07:03:50;26.73;;;13.33;;
12784;SDS011;6456;42.680;23.260;2023-03-14T07:06:18;20.13;;;12.90;;
12784;SDS011;6456;42.680;23.260;2023-03-14T07:08:45;25.93;;;12.83;;
12784;SDS011;6456;42.680;23.260;2023-03-14T07:11:12;20.33;;;12.53;;
12784;SDS011;6456;42.680;23.260;2023-03-14T07:13:39;19.37;;;12.00;;
12784;SDS011;6456;42.680;23.260;2023-03-14T07:16:07;20.10;;;12.43;;
12784;SDS011;6456;42.680;23.260;2023-03-14T07:18:34;16.00;;;12.00;;
12784;SDS011;6456;42.680;23.260;2023-03-14T07:21:02;20.63;;;11.10;;
12784;SDS011;6456;42.680;23.260;2023-03-14T07:23:31;14.40;;;11.20;;
12784;SDS011;6456;42.680;23.260;2023-03-14T07:25:57;17.87;;;12.17;;
12784;SDS011;6456;42.680;23.260;2023-03-14T07:28:24;18.70;;;12.37;;
12784;SDS011;6456;42.680;23.260;2023-03-14T07:30:52;17.77;;;12.43;;
12784;SDS011;6456;42.680;23.260;2023-03-14T07:33:19;20.57;;;11.93;;
12784;SDS011;6456;42.680;23.260;2023-03-14T07:35:46;19.37;;;12.93;;
12784;SDS011;6456;42.680;23.260;2023-03-14T07:38:14;20.73;;;12.83;;
12784;SDS011;6456;42.680;23.260;2023-03-14T07:40:42;16.70;;;11.90;;
12784;SDS011;6456;42.680;23.260;2023-03-14T07:43:09;17.07;;;11.67;;
12784;SDS011;6456;42.680;23.260;2023-03-14T07:45:36;14.37;;;11.63;;
12784;SDS011;6456;42.680;23.260;2023-03-14T07:48:03;16.17;;;11.73;;
12784;SDS011;6456;42.680;23.260;2023-03-14T07:50:30;22.93;;;12.10;;
12784;SDS011;6456;42.680;23.260;2023-03-14T07:52:56;15.57;;;11.77;;
12784;SDS011;6456;42.680;23.260;2023-03-14T07:55:23;16.40;;;11.63;;
12784;SDS011;6456;42.680;23.260;2023-03-14T07:57:51;17.90;;;11.47;;
12784;SDS011;6456;42.680;23.260;2023-03-14T08:00:19;17.27;;;12.23;;
12784;SDS011;6456;42.680;23.260;2023-03-14T08:02:46;17.60;;;12.43;;
12784;SDS011;6456;42.680;23.260;2023-03-14T08:05:13;15.80;;;12.10;;
12784;SDS011;6456;42.680;23.260;2023-03-14T08:07:40;17.03;;;12.90;;
12784;SDS011;6456;42.680;23.260;2023-03-14T08:10:08;18.47;;;12.07;;
12784;SDS011;6456;42.680;23.260;2023-03-14T08:12:35;16.00;;;11.50;;
12784;SDS011;6456;42.680;23.260;2023-03-14T08:15:04;17.17;;;11.00;;
12784;SDS011;6456;42.680;23.260;2023-03-14T08:17:31;17.73;;;12.17;;
12784;SDS011;6456;42.680;23.260;2023-03-14T08:19:58;17.67;;;12.20;;
12784;SDS011;6456;42.680;23.260;2023-03-14T08:22:25;19.40;;;12.33;;
12784;SDS011;6456;42.680;23.260;2023-03-14T08:24:52;16.97;;;12.20;;
12784;SDS011;6456;42.680;23.260;2023-03-14T08:27:19;19.87;;;12.87;;
12784;SDS011;6456;42.680;23.260;2023-03-14T08:29:46;15.70;;;12.93;;
12784;SDS011;6456;42.680;23.260;2023-03-14T08:32:14;16.90;;;12.23;;
12784;SDS011;6456;42.680;23.260;2023-03-14T08:34:41;19.90;;;11.67;;
12784;SDS011;6456;42.680;23.260;2023-03-14T08:37:08;16.70;;;11.10;;
12784;SDS011;6456;42.680;23.260;2023-03-14T08:39:35;15.23;;;12.20;;
12784;SDS011;6456;42.680;23.260;2023-03-14T08:42:02;18.47;;;12.63;;
12784;SDS011;6456;42.680;23.260;2023-03-14T08:44:29;20.20;;;12.77;;
12784;SDS011;6456;42.680;23.260;2023-03-14T08:46:56;17.17;;;13.40;;
12784;SDS011;6456;42.680;23.260;2023-03-14T08:49:24;20.97;;;14.17;;
12784;SDS011;6456;42.680;23.260;2023-03-14T08:51:51;23.73;;;13.57;;
12784;SDS011;6456;42.680;23.260;2023-03-14T08:54:18;18.90;;;12.63;;
12784;SDS011;6456;42.680;23.260;2023-03-14T08:56:44;22.13;;;12.70;;
12784;SDS011;6456;42.680;23.260;2023-03-14T08:59:11;17.73;;;11.00;;
12784;SDS011;6456;42.680;23.260;2023-03-14T09:01:38;17.37;;;11.70;;
12784;SDS011;6456;42.680;23.260;2023-03-14T09:04:05;32.77;;;11.87;;
12784;SDS011;6456;42.680;23.260;2023-03-14T09:06:34;16.67;;;11.80;;
12784;SDS011;6456;42.680;23.260;2023-03-14T09:09:00;17.37;;;12.00;;
12784;SDS011;6456;42.680;23.260;2023-03-14T09:11:28;15.17;;;11.20;;
12784;SDS011;6456;42.680;23.260;2023-03-14T09:13:54;14.60;;;11.00;;
12784;SDS011;6456;42.680;23.260;2023-03-14T09:16:21;15.63;;;10.27;;
12784;SDS011;6456;42.680;23.260;2023-03-14T09:18:48;16.57;;;10.33;;
12784;SDS011;6456;42.680;23.260;2023-03-14T09:21:15;13.67;;;9.83;;
12784;SDS011;6456;42.680;23.260;2023-03-14T09:23:43;10.80;;;8.73;;
12784;SDS011;6456;42.680;23.260;2023-03-14T09:26:11;13.07;;;8.97;;
12784;SDS011;6456;42.680;23.260;2023-03-14T09:28:38;12.43;;;8.93;;
12784;SDS011;6456;42.680;23.260;2023-03-14T09:31:05;10.03;;;8.47;;
12784;SDS011;6456;42.680;23.260;2023-03-14T09:33:33;10.47;;;8.00;;
12784;SDS011;6456;42.680;23.260;2023-03-14T09:36:00;12.90;;;8.50;;
12784;SDS011;6456;42.680;23.260;2023-03-14T09:38:27;8.63;;;7.20;;
12784;SDS011;6456;42.680;23.260;2023-03-14T09:40:56;9.57;;;7.07;;
12784;SDS011;6456;42.680;23.260;2023-03-14T09:43:25;14.63;;;7.23;;
12784;SDS011;6456;42.680;23.260;2023-03-14T09:45:56;10.70;;;7.43;;
12784;SDS011;6456;42.680;23.260;2023-03-14T09:48:26;22.73;;;8.10;;
12784;SDS011;6456;42.680;23.260;2023-03-14T09:50:56;14.10;;;7.63;;
12784;SDS011;6456;42.680;23.260;2023-03-14T09:53:28;11.37;;;7.10;;
12784;SDS011;6456;42.680;23.260;2023-03-14T09:56:03;10.30;;;8.03;;
12784;SDS011;6456;42.680;23.260;2023-03-14T09:58:36;12.40;;;7.83;;
12784;SDS011;6456;42.680;23.260;2023-03-14T10:01:04;9.57;;;7.47;;
12784;SDS011;6456;42.680;23.260;2023-03-14T10:03:32;9.30;;;7.33;;
12784;SDS011;6456;42.680;23.260;2023-03-14T10:06:00;10.83;;;7.10;;
12784;SDS011;6456;42.680;23.260;2023-03-14T10:08:27;8.73;;;7.00;;
12784;SDS011;6456;42.680;23.260;2023-03-14T10:10:54;9.27;;;6.80;;
12784;SDS011;6456;42.680;23.260;2023-03-14T10:13:23;8.47;;;6.40;;
12784;SDS011;6456;42.680;23.260;2023-03-14T10:15:53;11.67;;;6.07;;
12784;SDS011;6456;42.680;23.260;2023-03-14T10:18:21;14.23;;;7.03;;
12784;SDS011;6456;42.680;23.260;2023-03-14T10:20:51;9.00;;;6.60;;
12784;SDS011;6456;42.680;23.260;2023-03-14T10:23:30;8.63;;;6.27;;
12784;SDS011;6456;42.680;23.260;2023-03-14T10:25:59;8.93;;;6.40;;
12784;SDS011;6456;42.680;23.260;2023-03-14T10:28:33;8.87;;;6.93;;
12784;SDS011;6456;42.680;23.260;2023-03-14T10:31:03;7.63;;;6.23;;
12784;SDS011;6456;42.680;23.260;2023-03-14T10:33:31;11.17;;;6.93;;
12784;SDS011;6456;42.680;23.260;2023-03-14T10:36:00;9.47;;;5.93;;
12784;SDS011;6456;42.680;23.260;2023-03-14T10:38:29;7.93;;;5.77;;
12784;SDS011;6456;42.680;23.260;2023-03-14T10:40:57;14.87;;;6.10;;
12784;SDS011;6456;42.680;23.260;2023-03-14T10:43:25;8.70;;;5.33;;
12784;SDS011;6456;42.680;23.260;2023-03-14T10:45:58;9.63;;;5.53;;
12784;SDS011;6456;42.680;23.260;2023-03-14T10:48:31;8.10;;;5.50;;
12784;SDS011;6456;42.680;23.260;2023-03-14T10:51:02;11.43;;;6.20;;
12784;SDS011;6456;42.680;23.260;2023-03-14T10:53:38;7.73;;;5.47;;
12784;SDS011;6456;42.680;23.260;2023-03-14T10:56:11;9.33;;;6.03;;
12784;SDS011;6456;42.680;23.260;2023-03-14T10:58:39;9.53;;;6.90;;
12784;SDS011;6456;42.680;23.260;2023-03-14T11:03:57;9.73;;;6.27;;
12784;SDS011;6456;42.680;23.260;2023-03-14T11:06:32;10.13;;;5.97;;
12784;SDS011;6456;42.680;23.260;2023-03-14T11:09:06;8.73;;;6.30;;
12784;SDS011;6456;42.680;23.260;2023-03-14T11:11:42;10.03;;;6.20;;
12784;SDS011;6456;42.680;23.260;2023-03-14T11:14:15;11.27;;;6.57;;
12784;SDS011;6456;42.680;23.260;2023-03-14T11:16:56;11.60;;;6.33;;
12784;SDS011;6456;42.680;23.260;2023-03-14T11:19:33;10.47;;;6.50;;
12784;SDS011;6456;42.680;23.260;2023-03-14T11:22:12;9.33;;;6.77;;
12784;SDS011;6456;42.680;23.260;2023-03-14T11:25:02;13.10;;;6.97;;
12784;SDS011;6456;42.680;23.260;2023-03-14T11:27:40;13.83;;;6.40;;
12784;SDS011;6456;42.680;23.260;2023-03-14T11:30:19;9.43;;;5.83;;
12784;SDS011;6456;42.680;23.260;2023-03-14T11:32:53;10.53;;;5.80;;
12784;SDS011;6456;42.680;23.260;2023-03-14T11:35:26;7.13;;;4.97;;
12784;SDS011;6456;42.680;23.260;2023-03-14T11:37:59;14.93;;;5.53;;
12784;SDS011;6456;42.680;23.260;2023-03-14T11:40:36;7.80;;;5.70;;
12784;SDS011;6456;42.680;23.260;2023-03-14T11:43:06;10.10;;;5.57;;
12784;SDS011;6456;42.680;23.260;2023-03-14T11:45:39;6.60;;;4.87;;
12784;SDS011;6456;42.680;23.260;2023-03-14T11:48:22;7.10;;;4.77;;
12784;SDS011;6456;42.680;23.260;2023-03-14T11:50:56;5.30;;;4.80;;
12784;SDS011;6456;42.680;23.260;2023-03-14T11:53:29;8.57;;;5.23;;
12784;SDS011;6456;42.680;23.260;2023-03-14T11:56:10;5.77;;;4.70;;
12784;SDS011;6456;42.680;23.260;2023-03-14T11:58:50;6.13;;;4.40;;
12784;SDS011;6456;42.680;23.260;2023-03-14T12:01:22;4.97;;;4.47;;
12784;SDS011;6456;42.680;23.260;2023-03-14T12:04:00;5.57;;;4.37;;
12784;SDS011;6456;42.680;23.260;2023-03-14T12:06:35;3.93;;;3.47;;
12784;SDS011;6456;42.680;23.260;2023-03-14T12:09:07;10.23;;;4.00;;
12784;SDS011;6456;42.680;23.260;2023-03-14T12:11:43;17.10;;;3.90;;
12784;SDS011;6456;42.680;23.260;2023-03-14T12:14:17;5.20;;;3.97;;
12784;SDS011;6456;42.680;23.260;2023-03-14T12:16:48;6.67;;;3.33;;
12784;SDS011;6456;42.680;23.260;2023-03-14T12:19:32;3.57;;;3.27;;
12784;SDS011;6456;42.680;23.260;2023-03-14T12:22:05;8.90;;;3.93;;
12784;SDS011;6456;42.680;23.260;2023-03-14T12:24:44;6.27;;;3.50;;
12784;SDS011;6456;42.680;23.260;2023-03-14T12:30:14;5.23;;;3.27;;
12784;SDS011;6456;42.680;23.260;2023-03-14T12:35:56;3.87;;;3.10;;
12784;SDS011;6456;42.680;23.260;2023-03-14T12:38:27;6.83;;;3.67;;
12784;SDS011;6456;42.680;23.260;2023-03-14T12:41:19;6.70;;;3.70;;
12784;SDS011;6456;42.680;23.260;2023-03-14T12:43:50;9.43;;;3.30;;
12784;SDS011;6456;42.680;23.260;2023-03-14T12:46:21;6.23;;;3.10;;
12784;SDS011;6456;42.680;23.260;2023-03-14T12:48:54;6.03;;;3.30;;
12784;SDS011;6456;42.680;23.260;2023-03-14T12:51:35;4.67;;;3.07;;
12784;SDS011;6456;42.680;23.260;2023-03-14T12:59:51;7.97;;;3.00;;
12784;SDS011;6456;42.680;23.260;2023-03-14T13:02:26;3.43;;;2.43;;
12784;SDS011;6456;42.680;23.260;2023-03-14T13:05:00;3.43;;;2.57;;
12784;SDS011;6456;42.680;23.260;2023-03-14T13:07:33;4.00;;;2.57;;
12784;SDS011;6456;42.680;23.260;2023-03-14T13:10:14;7.57;;;2.87;;
12784;SDS011;6456;42.680;23.260;2023-03-14T13:12:47;2.73;;;2.47;;
12784;SDS011;6456;42.680;23.260;2023-03-14T13:15:20;3.53;;;2.40;;
12784;SDS011;6456;42.680;23.260;2023-03-14T13:17:51;4.77;;;2.07;;
12784;SDS011;6456;42.680;23.260;2023-03-14T13:20:22;6.17;;;2.40;;
12784;SDS011;6456;42.680;23.260;2023-03-14T13:22:56;3.23;;;2.20;;
12784;SDS011;6456;42.680;23.260;2023-03-14T13:25:23;2.93;;;2.30;;
12784;SDS011;6456;42.680;23.260;2023-03-14T13:27:52;3.63;;;2.20;;
12784;SDS011;6456;42.680;23.260;2023-03-14T13:30:21;10.00;;;2.60;;
12784;SDS011;6456;42.680;23.260;2023-03-14T13:32:50;3.43;;;2.20;;
12784;SDS011;6456;42.680;23.260;2023-03-14T13:35:19;4.93;;;2.07;;
12784;SDS011;6456;42.680;23.260;2023-03-14T13:37:51;6.23;;;2.30;;
12784;SDS011;6456;42.680;23.260;2023-03-14T13:40:23;3.43;;;2.40;;
12784;SDS011;6456;42.680;23.260;2023-03-14T13:42:59;2.93;;;2.33;;
12784;SDS011;6456;42.680;23.260;2023-03-14T13:45:31;2.40;;;1.90;;
12784;SDS011;6456;42.680;23.260;2023-03-14T13:47:57;6.17;;;2.70;;
12784;SDS011;6456;42.680;23.260;2023-03-14T13:50:24;3.37;;;2.00;;
12784;SDS011;6456;42.680;23.260;2023-03-14T13:52:54;4.73;;;2.00;;
12784;SDS011;6456;42.680;23.260;2023-03-14T13:55:26;4.63;;;2.03;;
12784;SDS011;6456;42.680;23.260;2023-03-14T13:57:55;9.80;;;2.40;;
12784;SDS011;6456;42.680;23.260;2023-03-14T14:00:23;1.77;;;1.63;;
12784;SDS011;6456;42.680;23.260;2023-03-14T14:02:52;6.37;;;2.80;;
12784;SDS011;6456;42.680;23.260;2023-03-14T14:05:21;7.03;;;2.33;;
12784;SDS011;6456;42.680;23.260;2023-03-14T14:07:48;11.13;;;3.07;;
12784;SDS011;6456;42.680;23.260;2023-03-14T14:10:17;2.87;;;2.00;;
12784;SDS011;6456;42.680;23.260;2023-03-14T14:12:47;2.53;;;1.93;;
12784;SDS011;6456;42.680;23.260;2023-03-14T14:15:19;4.07;;;2.10;;
12784;SDS011;6456;42.680;23.260;2023-03-14T14:17:51;8.60;;;2.30;;
12784;SDS011;6456;42.680;23.260;2023-03-14T14:20:21;4.97;;;2.27;;
12784;SDS011;6456;42.680;23.260;2023-03-14T14:22:57;6.13;;;2.00;;
12784;SDS011;6456;42.680;23.260;2023-03-14T14:25:25;3.97;;;2.33;;
12784;SDS011;6456;42.680;23.260;2023-03-14T14:27:53;5.93;;;2.13;;
12784;SDS011;6456;42.680;23.260;2023-03-14T14:30:28;3.97;;;2.83;;
12784;SDS011;6456;42.680;23.260;2023-03-14T14:33:10;3.23;;;2.33;;
12784;SDS011;6456;42.680;23.260;2023-03-14T14:35:48;6.60;;;2.40;;
12784;SDS011;6456;42.680;23.260;2023-03-14T14:38:18;6.13;;;2.13;;
12784;SDS011;6456;42.680;23.260;2023-03-14T14:40:48;2.43;;;1.60;;
12784;SDS011;6456;42.680;23.260;2023-03-14T14:43:18;4.50;;;2.10;;
12784;SDS011;6456;42.680;23.260;2023-03-14T14:45:49;7.93;;;2.30;;
12784;SDS011;6456;42.680;23.260;2023-03-14T14:48:19;13.90;;;2.43;;
12784;SDS011;6456;42.680;23.260;2023-03-14T14:50:58;12.73;;;2.23;;
12784;SDS011;6456;42.680;23.260;2023-03-14T14:53:28;13.10;;;2.60;;
12784;SDS011;6456;42.680;23.260;2023-03-14T14:55:57;22.03;;;3.77;;
12784;SDS011;6456;42.680;23.260;2023-03-14T14:58:27;5.63;;;2.23;;
12784;SDS011;6456;42.680;23.260;2023-03-14T15:00:57;8.73;;;2.30;;
12784;SDS011;6456;42.680;23.260;2023-03-14T15:03:29;4.40;;;2.20;;
12784;SDS011;6456;42.680;23.260;2023-03-14T15:05:58;61.37;;;8.53;;
12784;SDS011;6456;42.680;23.260;2023-03-14T15:08:25;10.43;;;2.73;;